sensor_id;sensor_type;location;lat;lon;timestamp;P1;durP1;ratioP1;P2;durP2;ratioP2
3733;SDS011;1882;52.256;8.874;2023-05-07T00:01:08;42.30;;;25.33;;
3733;SDS011;1882;52.256;8.874;2023-05-07T00:03:37;47.40;;;26.90;;
3733;SDS011;1882;52.256;8.874;2023-05-07T00:06:05;46.80;;;27.10;;
3733;SDS011;1882;52.256;8.874;2023-05-07T00:08:33;48.87;;;27.40;;
3733;SDS011;1882;52.256;8.874;2023-05-07T00:11:03;42.77;;;25.50;;
3733;SDS011;1882;52.256;8.874;2023-05-07T00:13:30;49.30;;;27.03;;
3733;SDS011;1882;52.256;8.874;2023-05-07T00:16:02;44.40;;;26.33;;
3733;SDS011;1882;52.256;8.874;2023-05-07T00:18:29;45.93;;;27.67;;
3733;SDS011;1882;52.256;8.874;2023-05-07T00:20:57;45.07;;;25.30;;
3733;SDS011;1882;52.256;8.874;2023-05-07T00:23:30;48.70;;;26.63;;
3733;SDS011;1882;52.256;8.874;2023-05-07T00:25:56;44.80;;;25.00;;
3733;SDS011;1882;52.256;8.874;2023-05-07T00:28:27;45.43;;;24.63;;
3733;SDS011;1882;52.256;8.874;2023-05-07T00:31:05;46.93;;;25.63;;
3733;SDS011;1882;52.256;8.874;2023-05-07T00:33:32;45.90;;;26.40;;
3733;SDS011;1882;52.256;8.874;2023-05-07T00:35:59;40.50;;;23.57;;
3733;SDS011;1882;52.256;8.874;2023-05-07T00:38:31;44.47;;;25.33;;
3733;SDS011;1882;52.256;8.874;2023-05-07T00:40:58;41.80;;;25.27;;
3733;SDS011;1882;52.256;8.874;2023-05-07T00:43:27;42.50;;;24.57;;
3733;SDS011;1882;52.256;8.874;2023-05-07T00:45:55;46.83;;;25.23;;
3733;SDS011;1882;52.256;8.874;2023-05-07T00:48:34;43.20;;;24.83;;
3733;SDS011;1882;52.256;8.874;2023-05-07T00:51:23;43.60;;;25.17;;
3733;SDS011;1882;52.256;8.874;2023-05-07T00:53:51;40.90;;;23.60;;
3733;SDS011;1882;52.256;8.874;2023-05-07T00:56:21;47.17;;;25.30;;
3733;SDS011;1882;52.256;8.874;2023-05-07T00:58:48;45.73;;;26.67;;
3733;SDS011;1882;52.256;8.874;2023-05-07T01:01:21;45.80;;;25.50;;
3733;SDS011;1882;52.256;8.874;2023-05-07T01:03:51;44.20;;;26.07;;
3733;SDS011;1882;52.256;8.874;2023-05-07T01:06:18;48.03;;;25.17;;
3733;SDS011;1882;52.256;8.874;2023-05-07T01:08:45;46.00;;;26.30;;
3733;SDS011;1882;52.256;8.874;2023-05-07T01:11:12;46.27;;;26.40;;
3733;SDS011;1882;52.256;8.874;2023-05-07T01:13:39;44.47;;;26.10;;
3733;SDS011;1882;52.256;8.874;2023-05-07T01:16:09;44.73;;;27.20;;
3733;SDS011;1882;52.256;8.874;2023-05-07T01:18:36;46.57;;;27.07;;
3733;SDS011;1882;52.256;8.874;2023-05-07T01:21:04;48.03;;;26.97;;
3733;SDS011;1882;52.256;8.874;2023-05-07T01:23:39;46.03;;;26.40;;
3733;SDS011;1882;52.256;8.874;2023-05-07T01:26:06;48.20;;;26.40;;
3733;SDS011;1882;52.256;8.874;2023-05-07T01:28:34;47.60;;;28.97;;
3733;SDS011;1882;52.256;8.874;2023-05-07T01:31:03;50.20;;;26.80;;
3733;SDS011;1882;52.256;8.874;2023-05-07T01:33:32;54.37;;;29.27;;
3733;SDS011;1882;52.256;8.874;2023-05-07T01:36:00;53.13;;;29.50;;
3733;SDS011;1882;52.256;8.874;2023-05-07T01:38:30;52.70;;;29.13;;
3733;SDS011;1882;52.256;8.874;2023-05-07T01:40:58;50.87;;;28.70;;
3733;SDS011;1882;52.256;8.874;2023-05-07T01:43:28;53.47;;;29.50;;
3733;SDS011;1882;52.256;8.874;2023-05-07T01:45:56;54.20;;;29.00;;
3733;SDS011;1882;52.256;8.874;2023-05-07T01:48:27;50.83;;;28.50;;
3733;SDS011;1882;52.256;8.874;2023-05-07T01:50:57;54.73;;;28.70;;
3733;SDS011;1882;52.256;8.874;2023-05-07T01:53:26;52.47;;;28.47;;
3733;SDS011;1882;52.256;8.874;2023-05-07T01:55:54;62.70;;;28.60;;
3733;SDS011;1882;52.256;8.874;2023-05-07T01:58:23;52.93;;;29.03;;
3733;SDS011;1882;52.256;8.874;2023-05-07T02:00:56;50.33;;;28.30;;
3733;SDS011;1882;52.256;8.874;2023-05-07T02:03:32;53.10;;;30.07;;
3733;SDS011;1882;52.256;8.874;2023-05-07T02:06:12;53.40;;;28.57;;
3733;SDS011;1882;52.256;8.874;2023-05-07T02:08:42;54.33;;;30.53;;
3733;SDS011;1882;52.256;8.874;2023-05-07T02:11:10;54.57;;;30.80;;
3733;SDS011;1882;52.256;8.874;2023-05-07T02:13:37;54.90;;;29.80;;
3733;SDS011;1882;52.256;8.874;2023-05-07T02:16:06;55.30;;;30.10;;
3733;SDS011;1882;52.256;8.874;2023-05-07T02:18:37;53.03;;;29.87;;
3733;SDS011;1882;52.256;8.874;2023-05-07T02:21:07;57.43;;;30.90;;
3733;SDS011;1882;52.256;8.874;2023-05-07T02:23:35;55.53;;;28.27;;
3733;SDS011;1882;52.256;8.874;2023-05-07T02:26:03;54.80;;;29.73;;
3733;SDS011;1882;52.256;8.874;2023-05-07T02:28:31;54.40;;;30.10;;
3733;SDS011;1882;52.256;8.874;2023-05-07T02:31:02;54.53;;;29.17;;
3733;SDS011;1882;52.256;8.874;2023-05-07T02:33:31;52.27;;;30.53;;
3733;SDS011;1882;52.256;8.874;2023-05-07T02:36:05;49.47;;;29.27;;
3733;SDS011;1882;52.256;8.874;2023-05-07T02:38:33;57.07;;;30.77;;
3733;SDS011;1882;52.256;8.874;2023-05-07T02:41:04;56.10;;;30.00;;
3733;SDS011;1882;52.256;8.874;2023-05-07T02:43:35;54.23;;;30.17;;
3733;SDS011;1882;52.256;8.874;2023-05-07T02:46:07;56.57;;;30.13;;
3733;SDS011;1882;52.256;8.874;2023-05-07T02:48:43;71.00;;;31.17;;
3733;SDS011;1882;52.256;8.874;2023-05-07T02:51:10;59.37;;;29.83;;
3733;SDS011;1882;52.256;8.874;2023-05-07T02:53:39;58.20;;;30.80;;
3733;SDS011;1882;52.256;8.874;2023-05-07T02:56:14;59.43;;;31.13;;
3733;SDS011;1882;52.256;8.874;2023-05-07T02:58:41;55.57;;;29.97;;
3733;SDS011;1882;52.256;8.874;2023-05-07T03:01:11;60.70;;;31.80;;
3733;SDS011;1882;52.256;8.874;2023-05-07T03:03:49;61.83;;;30.70;;
3733;SDS011;1882;52.256;8.874;2023-05-07T03:06:15;55.80;;;29.80;;
3733;SDS011;1882;52.256;8.874;2023-05-07T03:08:42;59.50;;;31.03;;
3733;SDS011;1882;52.256;8.874;2023-05-07T03:11:09;61.90;;;30.53;;
3733;SDS011;1882;52.256;8.874;2023-05-07T03:13:37;58.87;;;30.10;;
3733;SDS011;1882;52.256;8.874;2023-05-07T03:16:05;57.17;;;30.40;;
3733;SDS011;1882;52.256;8.874;2023-05-07T03:18:33;62.10;;;31.03;;
3733;SDS011;1882;52.256;8.874;2023-05-07T03:21:00;60.57;;;30.53;;
3733;SDS011;1882;52.256;8.874;2023-05-07T03:23:27;61.40;;;30.27;;
3733;SDS011;1882;52.256;8.874;2023-05-07T03:25:55;56.80;;;29.73;;
3733;SDS011;1882;52.256;8.874;2023-05-07T03:28:22;62.30;;;29.30;;
3733;SDS011;1882;52.256;8.874;2023-05-07T03:30:54;61.33;;;29.30;;
3733;SDS011;1882;52.256;8.874;2023-05-07T03:33:21;64.80;;;28.90;;
3733;SDS011;1882;52.256;8.874;2023-05-07T03:35:49;56.30;;;28.33;;
3733;SDS011;1882;52.256;8.874;2023-05-07T03:38:23;64.17;;;29.87;;
3733;SDS011;1882;52.256;8.874;2023-05-07T03:40:50;60.57;;;29.93;;
3733;SDS011;1882;52.256;8.874;2023-05-07T03:43:17;60.77;;;28.20;;
3733;SDS011;1882;52.256;8.874;2023-05-07T03:45:51;61.43;;;29.00;;
3733;SDS011;1882;52.256;8.874;2023-05-07T03:48:22;55.80;;;27.60;;
3733;SDS011;1882;52.256;8.874;2023-05-07T03:50:55;58.27;;;28.50;;
3733;SDS011;1882;52.256;8.874;2023-05-07T03:53:27;57.83;;;28.53;;
3733;SDS011;1882;52.256;8.874;2023-05-07T03:55:54;56.60;;;30.07;;
3733;SDS011;1882;52.256;8.874;2023-05-07T03:58:23;55.80;;;28.67;;
3733;SDS011;1882;52.256;8.874;2023-05-07T04:00:55;59.90;;;28.37;;
3733;SDS011;1882;52.256;8.874;2023-05-07T04:03:26;56.10;;;29.20;;
3733;SDS011;1882;52.256;8.874;2023-05-07T04:06:00;54.97;;;28.27;;
3733;SDS011;1882;52.256;8.874;2023-05-07T04:08:32;58.03;;;29.00;;
3733;SDS011;1882;52.256;8.874;2023-05-07T04:10:59;66.67;;;28.00;;
3733;SDS011;1882;52.256;8.874;2023-05-07T04:13:30;60.70;;;28.90;;
3733;SDS011;1882;52.256;8.874;2023-05-07T04:16:00;55.47;;;27.97;;
3733;SDS011;1882;52.256;8.874;2023-05-07T04:18:28;58.87;;;27.50;;
3733;SDS011;1882;52.256;8.874;2023-05-07T04:21:00;57.10;;;28.13;;
3733;SDS011;1882;52.256;8.874;2023-05-07T04:23:31;57.97;;;29.03;;
3733;SDS011;1882;52.256;8.874;2023-05-07T04:26:02;52.50;;;25.47;;
3733;SDS011;1882;52.256;8.874;2023-05-07T04:28:39;50.63;;;25.30;;
3733;SDS011;1882;52.256;8.874;2023-05-07T04:31:34;53.40;;;25.80;;
3733;SDS011;1882;52.256;8.874;2023-05-07T04:34:01;62.53;;;26.87;;
3733;SDS011;1882;52.256;8.874;2023-05-07T04:36:28;56.87;;;25.50;;
3733;SDS011;1882;52.256;8.874;2023-05-07T04:39:04;47.17;;;24.80;;
3733;SDS011;1882;52.256;8.874;2023-05-07T04:41:31;48.87;;;24.40;;
3733;SDS011;1882;52.256;8.874;2023-05-07T04:44:00;51.57;;;24.73;;
3733;SDS011;1882;52.256;8.874;2023-05-07T04:46:30;46.43;;;23.50;;
3733;SDS011;1882;52.256;8.874;2023-05-07T04:48:59;44.43;;;23.50;;
3733;SDS011;1882;52.256;8.874;2023-05-07T04:51:27;47.07;;;24.03;;
3733;SDS011;1882;52.256;8.874;2023-05-07T04:53:54;44.17;;;23.00;;
3733;SDS011;1882;52.256;8.874;2023-05-07T04:56:21;44.60;;;23.57;;
3733;SDS011;1882;52.256;8.874;2023-05-07T04:58:49;41.60;;;21.60;;
3733;SDS011;1882;52.256;8.874;2023-05-07T05:01:19;49.03;;;23.70;;
3733;SDS011;1882;52.256;8.874;2023-05-07T05:03:47;42.13;;;21.23;;
3733;SDS011;1882;52.256;8.874;2023-05-07T05:06:14;40.57;;;20.93;;
3733;SDS011;1882;52.256;8.874;2023-05-07T05:08:41;41.63;;;21.70;;
3733;SDS011;1882;52.256;8.874;2023-05-07T05:11:09;35.97;;;20.63;;
3733;SDS011;1882;52.256;8.874;2023-05-07T05:13:39;38.30;;;21.13;;
3733;SDS011;1882;52.256;8.874;2023-05-07T05:16:14;37.57;;;19.90;;
3733;SDS011;1882;52.256;8.874;2023-05-07T05:18:42;37.07;;;20.73;;
3733;SDS011;1882;52.256;8.874;2023-05-07T05:21:11;38.53;;;20.17;;
3733;SDS011;1882;52.256;8.874;2023-05-07T05:23:39;38.33;;;21.47;;
3733;SDS011;1882;52.256;8.874;2023-05-07T05:26:06;36.73;;;20.80;;
3733;SDS011;1882;52.256;8.874;2023-05-07T05:28:42;35.83;;;20.00;;
3733;SDS011;1882;52.256;8.874;2023-05-07T05:31:10;34.50;;;20.07;;
3733;SDS011;1882;52.256;8.874;2023-05-07T05:33:37;35.30;;;19.50;;
3733;SDS011;1882;52.256;8.874;2023-05-07T05:36:04;36.70;;;19.30;;
3733;SDS011;1882;52.256;8.874;2023-05-07T05:38:32;33.00;;;19.17;;
3733;SDS011;1882;52.256;8.874;2023-05-07T05:40:59;30.70;;;18.77;;
3733;SDS011;1882;52.256;8.874;2023-05-07T05:43:27;35.60;;;19.03;;
3733;SDS011;1882;52.256;8.874;2023-05-07T05:45:55;32.50;;;19.17;;
3733;SDS011;1882;52.256;8.874;2023-05-07T05:48:22;33.40;;;19.10;;
3733;SDS011;1882;52.256;8.874;2023-05-07T05:50:49;32.43;;;20.00;;
3733;SDS011;1882;52.256;8.874;2023-05-07T05:53:17;32.13;;;19.37;;
3733;SDS011;1882;52.256;8.874;2023-05-07T05:55:44;35.10;;;19.97;;
3733;SDS011;1882;52.256;8.874;2023-05-07T05:58:11;36.00;;;19.20;;
3733;SDS011;1882;52.256;8.874;2023-05-07T06:00:42;34.20;;;19.30;;
3733;SDS011;1882;52.256;8.874;2023-05-07T06:03:11;31.13;;;18.43;;
3733;SDS011;1882;52.256;8.874;2023-05-07T06:05:40;34.93;;;19.57;;
3733;SDS011;1882;52.256;8.874;2023-05-07T06:08:07;31.37;;;18.57;;
3733;SDS011;1882;52.256;8.874;2023-05-07T06:10:35;30.60;;;18.10;;
3733;SDS011;1882;52.256;8.874;2023-05-07T06:13:04;33.17;;;19.83;;
3733;SDS011;1882;52.256;8.874;2023-05-07T06:15:33;30.90;;;18.33;;
3733;SDS011;1882;52.256;8.874;2023-05-07T06:18:04;36.20;;;20.43;;
3733;SDS011;1882;52.256;8.874;2023-05-07T06:20:31;34.07;;;19.47;;
3733;SDS011;1882;52.256;8.874;2023-05-07T06:23:00;31.10;;;17.00;;
3733;SDS011;1882;52.256;8.874;2023-05-07T06:25:28;31.20;;;18.23;;
3733;SDS011;1882;52.256;8.874;2023-05-07T06:27:55;31.40;;;18.80;;
3733;SDS011;1882;52.256;8.874;2023-05-07T06:30:23;33.60;;;19.63;;
3733;SDS011;1882;52.256;8.874;2023-05-07T06:32:53;30.00;;;18.07;;
3733;SDS011;1882;52.256;8.874;2023-05-07T06:35:20;33.93;;;19.40;;
3733;SDS011;1882;52.256;8.874;2023-05-07T06:37:47;35.33;;;19.77;;
3733;SDS011;1882;52.256;8.874;2023-05-07T06:40:21;32.17;;;17.47;;
3733;SDS011;1882;52.256;8.874;2023-05-07T06:42:48;32.27;;;18.70;;
3733;SDS011;1882;52.256;8.874;2023-05-07T06:45:35;30.63;;;18.13;;
3733;SDS011;1882;52.256;8.874;2023-05-07T06:48:03;28.60;;;17.10;;
3733;SDS011;1882;52.256;8.874;2023-05-07T06:50:34;34.27;;;18.20;;
3733;SDS011;1882;52.256;8.874;2023-05-07T06:53:01;28.73;;;16.17;;
3733;SDS011;1882;52.256;8.874;2023-05-07T06:55:28;29.10;;;17.03;;
3733;SDS011;1882;52.256;8.874;2023-05-07T06:57:55;32.00;;;18.17;;
3733;SDS011;1882;52.256;8.874;2023-05-07T07:00:23;35.07;;;17.40;;
3733;SDS011;1882;52.256;8.874;2023-05-07T07:02:53;30.77;;;17.37;;
3733;SDS011;1882;52.256;8.874;2023-05-07T07:05:23;29.13;;;17.57;;
3733;SDS011;1882;52.256;8.874;2023-05-07T07:07:51;29.47;;;16.80;;
3733;SDS011;1882;52.256;8.874;2023-05-07T07:10:24;31.93;;;18.70;;
3733;SDS011;1882;52.256;8.874;2023-05-07T07:12:52;30.00;;;17.30;;
3733;SDS011;1882;52.256;8.874;2023-05-07T07:15:20;30.93;;;17.70;;
3733;SDS011;1882;52.256;8.874;2023-05-07T07:17:52;29.30;;;15.80;;
3733;SDS011;1882;52.256;8.874;2023-05-07T07:20:23;29.93;;;17.20;;
3733;SDS011;1882;52.256;8.874;2023-05-07T07:22:52;35.30;;;17.63;;
3733;SDS011;1882;52.256;8.874;2023-05-07T07:25:21;31.13;;;18.23;;
3733;SDS011;1882;52.256;8.874;2023-05-07T07:27:48;36.60;;;17.57;;
3733;SDS011;1882;52.256;8.874;2023-05-07T07:30:16;32.33;;;17.07;;
3733;SDS011;1882;52.256;8.874;2023-05-07T07:32:46;29.33;;;16.30;;
3733;SDS011;1882;52.256;8.874;2023-05-07T07:35:14;31.87;;;17.13;;
3733;SDS011;1882;52.256;8.874;2023-05-07T07:37:42;34.60;;;17.60;;
3733;SDS011;1882;52.256;8.874;2023-05-07T07:40:09;31.10;;;17.70;;
3733;SDS011;1882;52.256;8.874;2023-05-07T07:42:38;28.97;;;16.40;;
3733;SDS011;1882;52.256;8.874;2023-05-07T07:45:05;28.90;;;16.10;;
3733;SDS011;1882;52.256;8.874;2023-05-07T07:47:36;31.37;;;16.10;;
3733;SDS011;1882;52.256;8.874;2023-05-07T07:50:04;31.40;;;17.27;;
3733;SDS011;1882;52.256;8.874;2023-05-07T07:52:31;26.00;;;15.87;;
3733;SDS011;1882;52.256;8.874;2023-05-07T07:54:57;29.13;;;15.90;;
3733;SDS011;1882;52.256;8.874;2023-05-07T07:57:24;27.80;;;14.63;;
3733;SDS011;1882;52.256;8.874;2023-05-07T07:59:51;30.93;;;17.40;;
3733;SDS011;1882;52.256;8.874;2023-05-07T08:02:19;28.77;;;16.03;;
3733;SDS011;1882;52.256;8.874;2023-05-07T08:04:46;25.90;;;15.40;;
3733;SDS011;1882;52.256;8.874;2023-05-07T08:07:12;29.03;;;15.80;;
3733;SDS011;1882;52.256;8.874;2023-05-07T08:09:42;26.27;;;15.50;;
3733;SDS011;1882;52.256;8.874;2023-05-07T08:12:09;27.83;;;16.07;;
3733;SDS011;1882;52.256;8.874;2023-05-07T08:14:47;26.70;;;15.63;;
3733;SDS011;1882;52.256;8.874;2023-05-07T08:17:14;27.40;;;15.33;;
3733;SDS011;1882;52.256;8.874;2023-05-07T08:19:43;25.60;;;14.80;;
3733;SDS011;1882;52.256;8.874;2023-05-07T08:22:12;24.13;;;14.83;;
3733;SDS011;1882;52.256;8.874;2023-05-07T08:24:39;26.23;;;15.30;;
3733;SDS011;1882;52.256;8.874;2023-05-07T08:27:06;23.87;;;14.47;;
3733;SDS011;1882;52.256;8.874;2023-05-07T08:29:33;26.90;;;15.37;;
3733;SDS011;1882;52.256;8.874;2023-05-07T08:32:02;21.20;;;13.60;;
3733;SDS011;1882;52.256;8.874;2023-05-07T08:34:33;25.40;;;14.17;;
3733;SDS011;1882;52.256;8.874;2023-05-07T08:37:12;22.37;;;13.43;;
3733;SDS011;1882;52.256;8.874;2023-05-07T08:39:39;22.40;;;14.17;;
3733;SDS011;1882;52.256;8.874;2023-05-07T08:42:13;21.33;;;13.50;;
3733;SDS011;1882;52.256;8.874;2023-05-07T08:44:51;20.83;;;12.73;;
3733;SDS011;1882;52.256;8.874;2023-05-07T08:47:22;21.73;;;13.33;;
3733;SDS011;1882;52.256;8.874;2023-05-07T08:49:59;22.83;;;13.93;;
3733;SDS011;1882;52.256;8.874;2023-05-07T08:52:26;21.87;;;13.60;;
3733;SDS011;1882;52.256;8.874;2023-05-07T08:54:53;22.77;;;13.47;;
3733;SDS011;1882;52.256;8.874;2023-05-07T08:57:24;20.37;;;13.00;;
3733;SDS011;1882;52.256;8.874;2023-05-07T08:59:53;19.70;;;12.40;;
3733;SDS011;1882;52.256;8.874;2023-05-07T09:02:19;22.43;;;12.90;;
3733;SDS011;1882;52.256;8.874;2023-05-07T09:04:47;23.80;;;14.00;;
3733;SDS011;1882;52.256;8.874;2023-05-07T09:07:21;17.43;;;11.53;;
3733;SDS011;1882;52.256;8.874;2023-05-07T09:09:49;24.60;;;13.40;;
3733;SDS011;1882;52.256;8.874;2023-05-07T09:12:17;19.67;;;12.67;;
3733;SDS011;1882;52.256;8.874;2023-05-07T09:14:45;21.87;;;12.73;;
3733;SDS011;1882;52.256;8.874;2023-05-07T09:17:12;18.50;;;11.80;;
3733;SDS011;1882;52.256;8.874;2023-05-07T09:19:39;19.10;;;12.00;;
3733;SDS011;1882;52.256;8.874;2023-05-07T09:22:07;20.30;;;11.47;;
3733;SDS011;1882;52.256;8.874;2023-05-07T09:24:47;21.67;;;12.30;;
3733;SDS011;1882;52.256;8.874;2023-05-07T09:27:15;20.57;;;12.33;;
3733;SDS011;1882;52.256;8.874;2023-05-07T09:29:44;19.43;;;11.77;;
3733;SDS011;1882;52.256;8.874;2023-05-07T09:32:12;19.17;;;11.97;;
3733;SDS011;1882;52.256;8.874;2023-05-07T09:34:41;19.43;;;12.00;;
3733;SDS011;1882;52.256;8.874;2023-05-07T09:37:10;18.97;;;11.40;;
3733;SDS011;1882;52.256;8.874;2023-05-07T09:39:46;19.07;;;11.10;;
3733;SDS011;1882;52.256;8.874;2023-05-07T09:42:23;18.83;;;11.60;;
3733;SDS011;1882;52.256;8.874;2023-05-07T09:44:59;18.87;;;10.73;;
3733;SDS011;1882;52.256;8.874;2023-05-07T09:47:32;16.20;;;11.10;;
3733;SDS011;1882;52.256;8.874;2023-05-07T09:50:01;17.40;;;11.10;;
3733;SDS011;1882;52.256;8.874;2023-05-07T09:55:29;17.67;;;10.60;;
3733;SDS011;1882;52.256;8.874;2023-05-07T09:58:12;17.97;;;12.43;;
3733;SDS011;1882;52.256;8.874;2023-05-07T10:04:45;13.90;;;10.30;;
3733;SDS011;1882;52.256;8.874;2023-05-07T10:07:14;18.50;;;11.00;;
3733;SDS011;1882;52.256;8.874;2023-05-07T10:09:51;18.80;;;10.93;;
3733;SDS011;1882;52.256;8.874;2023-05-07T10:12:26;18.10;;;10.47;;
3733;SDS011;1882;52.256;8.874;2023-05-07T10:15:49;13.37;;;9.73;;
3733;SDS011;1882;52.256;8.874;2023-05-07T10:22:37;13.63;;;9.87;;
3733;SDS011;1882;52.256;8.874;2023-05-07T10:25:41;17.10;;;10.47;;
3733;SDS011;1882;52.256;8.874;2023-05-07T10:38:13;14.10;;;9.53;;
3733;SDS011;1882;52.256;8.874;2023-05-07T10:40:43;15.43;;;10.00;;
3733;SDS011;1882;52.256;8.874;2023-05-07T10:43:16;14.53;;;10.30;;
3733;SDS011;1882;52.256;8.874;2023-05-07T10:51:34;13.87;;;9.90;;
3733;SDS011;1882;52.256;8.874;2023-05-07T10:56:57;14.73;;;10.10;;
3733;SDS011;1882;52.256;8.874;2023-05-07T11:03:06;13.70;;;9.40;;
3733;SDS011;1882;52.256;8.874;2023-05-07T11:09:01;14.43;;;9.50;;
3733;SDS011;1882;52.256;8.874;2023-05-07T11:11:50;13.53;;;9.20;;
3733;SDS011;1882;52.256;8.874;2023-05-07T11:17:14;15.30;;;9.70;;
3733;SDS011;1882;52.256;8.874;2023-05-07T11:19:51;13.73;;;9.00;;
3733;SDS011;1882;52.256;8.874;2023-05-07T11:25:25;12.10;;;9.10;;
3733;SDS011;1882;52.256;8.874;2023-05-07T11:28:06;16.20;;;9.87;;
3733;SDS011;1882;52.256;8.874;2023-05-07T11:30:42;12.33;;;9.10;;
3733;SDS011;1882;52.256;8.874;2023-05-07T11:33:13;12.93;;;9.57;;
3733;SDS011;1882;52.256;8.874;2023-05-07T11:35:45;13.47;;;8.87;;
3733;SDS011;1882;52.256;8.874;2023-05-07T11:38:14;13.60;;;9.87;;
3733;SDS011;1882;52.256;8.874;2023-05-07T11:40:49;13.57;;;9.50;;
3733;SDS011;1882;52.256;8.874;2023-05-07T11:43:18;12.27;;;8.57;;
3733;SDS011;1882;52.256;8.874;2023-05-07T11:45:45;13.40;;;9.10;;
3733;SDS011;1882;52.256;8.874;2023-05-07T11:48:14;11.90;;;9.20;;
3733;SDS011;1882;52.256;8.874;2023-05-07T11:50:52;13.77;;;9.13;;
3733;SDS011;1882;52.256;8.874;2023-05-07T11:53:38;12.67;;;9.20;;
3733;SDS011;1882;52.256;8.874;2023-05-07T11:56:23;11.60;;;8.60;;
3733;SDS011;1882;52.256;8.874;2023-05-07T11:58:56;12.47;;;8.87;;
3733;SDS011;1882;52.256;8.874;2023-05-07T12:01:36;14.30;;;9.77;;
3733;SDS011;1882;52.256;8.874;2023-05-07T12:04:07;14.43;;;9.37;;
3733;SDS011;1882;52.256;8.874;2023-05-07T12:06:46;11.87;;;9.10;;
3733;SDS011;1882;52.256;8.874;2023-05-07T12:09:31;13.50;;;9.83;;
3733;SDS011;1882;52.256;8.874;2023-05-07T12:12:12;16.40;;;9.80;;
3733;SDS011;1882;52.256;8.874;2023-05-07T12:14:42;12.07;;;8.83;;
3733;SDS011;1882;52.256;8.874;2023-05-07T12:17:14;12.13;;;9.03;;
3733;SDS011;1882;52.256;8.874;2023-05-07T12:19:42;13.07;;;8.73;;
3733;SDS011;1882;52.256;8.874;2023-05-07T12:22:13;14.23;;;9.33;;
3733;SDS011;1882;52.256;8.874;2023-05-07T12:24:56;11.43;;;8.93;;
3733;SDS011;1882;52.256;8.874;2023-05-07T12:27:38;14.27;;;9.17;;
3733;SDS011;1882;52.256;8.874;2023-05-07T12:30:05;13.83;;;9.53;;
3733;SDS011;1882;52.256;8.874;2023-05-07T12:32:33;11.53;;;9.07;;
3733;SDS011;1882;52.256;8.874;2023-05-07T12:35:03;12.40;;;9.07;;
3733;SDS011;1882;52.256;8.874;2023-05-07T12:37:32;12.60;;;9.30;;
3733;SDS011;1882;52.256;8.874;2023-05-07T12:40:09;13.53;;;9.90;;
3733;SDS011;1882;52.256;8.874;2023-05-07T12:42:38;15.37;;;10.20;;
3733;SDS011;1882;52.256;8.874;2023-05-07T12:45:12;13.60;;;9.30;;
3733;SDS011;1882;52.256;8.874;2023-05-07T12:47:45;13.20;;;10.17;;
3733;SDS011;1882;52.256;8.874;2023-05-07T12:50:15;11.60;;;9.17;;
3733;SDS011;1882;52.256;8.874;2023-05-07T12:52:45;16.73;;;10.50;;
3733;SDS011;1882;52.256;8.874;2023-05-07T12:55:14;13.67;;;10.23;;
3733;SDS011;1882;52.256;8.874;2023-05-07T12:57:42;16.83;;;10.20;;
3733;SDS011;1882;52.256;8.874;2023-05-07T13:00:15;15.13;;;10.97;;
3733;SDS011;1882;52.256;8.874;2023-05-07T13:02:46;13.60;;;9.47;;
3733;SDS011;1882;52.256;8.874;2023-05-07T13:05:15;12.70;;;9.53;;
3733;SDS011;1882;52.256;8.874;2023-05-07T13:07:52;12.83;;;9.97;;
3733;SDS011;1882;52.256;8.874;2023-05-07T13:10:20;13.13;;;10.60;;
3733;SDS011;1882;52.256;8.874;2023-05-07T13:13:04;14.50;;;11.00;;
3733;SDS011;1882;52.256;8.874;2023-05-07T13:15:33;13.10;;;10.10;;
3733;SDS011;1882;52.256;8.874;2023-05-07T13:17:59;13.77;;;10.10;;
3733;SDS011;1882;52.256;8.874;2023-05-07T13:20:29;15.60;;;10.97;;
3733;SDS011;1882;52.256;8.874;2023-05-07T13:23:00;17.97;;;11.87;;
3733;SDS011;1882;52.256;8.874;2023-05-07T13:25:46;14.10;;;10.63;;
3733;SDS011;1882;52.256;8.874;2023-05-07T13:28:15;18.20;;;12.70;;
3733;SDS011;1882;52.256;8.874;2023-05-07T13:30:43;15.37;;;11.90;;
3733;SDS011;1882;52.256;8.874;2023-05-07T13:33:10;17.90;;;12.20;;
3733;SDS011;1882;52.256;8.874;2023-05-07T13:35:54;16.37;;;11.80;;
3733;SDS011;1882;52.256;8.874;2023-05-07T13:38:23;15.80;;;11.77;;
3733;SDS011;1882;52.256;8.874;2023-05-07T13:41:02;17.27;;;11.47;;
3733;SDS011;1882;52.256;8.874;2023-05-07T13:43:29;15.43;;;11.00;;
3733;SDS011;1882;52.256;8.874;2023-05-07T13:45:56;14.47;;;11.40;;
3733;SDS011;1882;52.256;8.874;2023-05-07T13:48:23;15.30;;;12.43;;
3733;SDS011;1882;52.256;8.874;2023-05-07T13:50:57;12.17;;;10.60;;
3733;SDS011;1882;52.256;8.874;2023-05-07T13:53:26;15.53;;;10.53;;
3733;SDS011;1882;52.256;8.874;2023-05-07T13:56:01;11.77;;;9.53;;
3733;SDS011;1882;52.256;8.874;2023-05-07T13:58:30;15.97;;;9.87;;
3733;SDS011;1882;52.256;8.874;2023-05-07T14:00:59;15.10;;;10.97;;
3733;SDS011;1882;52.256;8.874;2023-05-07T14:03:35;14.37;;;11.50;;
3733;SDS011;1882;52.256;8.874;2023-05-07T14:06:07;15.17;;;11.00;;
3733;SDS011;1882;52.256;8.874;2023-05-07T14:08:50;13.00;;;10.90;;
3733;SDS011;1882;52.256;8.874;2023-05-07T14:11:20;14.90;;;10.70;;
3733;SDS011;1882;52.256;8.874;2023-05-07T14:13:53;15.00;;;10.30;;
3733;SDS011;1882;52.256;8.874;2023-05-07T14:16:20;15.47;;;10.57;;
3733;SDS011;1882;52.256;8.874;2023-05-07T14:19:07;12.93;;;10.47;;
3733;SDS011;1882;52.256;8.874;2023-05-07T14:21:43;14.00;;;10.80;;
3733;SDS011;1882;52.256;8.874;2023-05-07T14:24:10;13.23;;;10.07;;
3733;SDS011;1882;52.256;8.874;2023-05-07T14:26:56;12.60;;;10.70;;
3733;SDS011;1882;52.256;8.874;2023-05-07T14:29:28;13.67;;;10.60;;
3733;SDS011;1882;52.256;8.874;2023-05-07T14:31:58;14.03;;;10.37;;
3733;SDS011;1882;52.256;8.874;2023-05-07T14:34:42;14.43;;;11.20;;
3733;SDS011;1882;52.256;8.874;2023-05-07T14:37:09;14.43;;;10.63;;
3733;SDS011;1882;52.256;8.874;2023-05-07T14:39:48;13.40;;;10.53;;
3733;SDS011;1882;52.256;8.874;2023-05-07T14:42:16;17.87;;;10.40;;
3733;SDS011;1882;52.256;8.874;2023-05-07T14:44:55;12.77;;;10.30;;
3733;SDS011;1882;52.256;8.874;2023-05-07T14:47:24;14.60;;;10.27;;
3733;SDS011;1882;52.256;8.874;2023-05-07T14:50:00;14.70;;;10.10;;
3733;SDS011;1882;52.256;8.874;2023-05-07T14:52:30;11.17;;;9.13;;
3733;SDS011;1882;52.256;8.874;2023-05-07T14:55:04;12.53;;;8.90;;
3733;SDS011;1882;52.256;8.874;2023-05-07T14:57:31;12.40;;;9.47;;
3733;SDS011;1882;52.256;8.874;2023-05-07T15:00:16;15.07;;;9.40;;
3733;SDS011;1882;52.256;8.874;2023-05-07T15:02:43;11.50;;;9.03;;
3733;SDS011;1882;52.256;8.874;2023-05-07T15:05:15;9.90;;;8.70;;
3733;SDS011;1882;52.256;8.874;2023-05-07T15:08:03;11.00;;;9.17;;
3733;SDS011;1882;52.256;8.874;2023-05-07T15:10:49;10.20;;;8.57;;
3733;SDS011;1882;52.256;8.874;2023-05-07T15:13:16;10.97;;;8.90;;
3733;SDS011;1882;52.256;8.874;2023-05-07T15:15:44;10.23;;;9.10;;
3733;SDS011;1882;52.256;8.874;2023-05-07T15:18:11;13.47;;;9.73;;
3733;SDS011;1882;52.256;8.874;2023-05-07T15:20:38;11.83;;;9.37;;
3733;SDS011;1882;52.256;8.874;2023-05-07T15:23:18;10.50;;;8.50;;
3733;SDS011;1882;52.256;8.874;2023-05-07T15:25:55;9.67;;;8.67;;
3733;SDS011;1882;52.256;8.874;2023-05-07T15:28:24;13.67;;;9.17;;
3733;SDS011;1882;52.256;8.874;2023-05-07T15:31:00;12.50;;;10.20;;
3733;SDS011;1882;52.256;8.874;2023-05-07T15:33:27;12.10;;;9.50;;
3733;SDS011;1882;52.256;8.874;2023-05-07T15:36:10;10.60;;;9.07;;
3733;SDS011;1882;52.256;8.874;2023-05-07T15:39:02;11.00;;;9.07;;
3733;SDS011;1882;52.256;8.874;2023-05-07T15:41:42;10.30;;;8.63;;
3733;SDS011;1882;52.256;8.874;2023-05-07T15:44:12;12.13;;;9.73;;
3733;SDS011;1882;52.256;8.874;2023-05-07T15:46:42;11.90;;;9.40;;
3733;SDS011;1882;52.256;8.874;2023-05-07T15:49:13;12.13;;;10.20;;
3733;SDS011;1882;52.256;8.874;2023-05-07T15:51:40;12.73;;;9.70;;
3733;SDS011;1882;52.256;8.874;2023-05-07T15:54:16;10.77;;;9.37;;
3733;SDS011;1882;52.256;8.874;2023-05-07T15:56:46;14.47;;;10.47;;